Watertown Regional Airport
KATY : now visible

Airfield :











YOU CAN JOIN US ON...

 
LOGIN :

Register | Disclaimer

   EN    FR    IT 

 









Legend :    VFR   Marginal VFR   IFR   Intensive IFR   Very Intensive IFR
Visi :
Ceiling :
>= 8 km
>= 3000ft
5 to 8 km
1000 to 3000 ft
1500m to 5 km
500 to 1000 ft
800 to 1500m
200 to 500 ft
< 800m
< 200 ft
Symbols :   Thunderstorms  Fog  Heavy snow  Heavy precipitations  Wind > 20 kt






- Airport Elevation : 1749 ft
- IATA code : ATY


KATY - Watertown Regional

CURRENT METAR :
  • 081853Z AUTO 33022G32KT 10SM CLR 09/M06 A2998 RMK AO2 PK WND 33032/1850 SLP160 T00891056

EXPIRED METARs :
  • 081753Z AUTO 31021G29KT 10SM BKN110 08/M04 A2998 RMK AO2 PK WND 31031/1718 SLP163 T00781039 10083 20044 50010
  • 081653Z AUTO 33020G28KT 10SM SCT100 BKN120 07/M04 A2999 RMK AO2 PK WND 32032/1557 SLP165 T00721044

TAF KATY
Valid from the 08 at 18:00 until the 09 at 18:00 UTC


081740Z 0818/0918 32027G37KT P6SM SCT070
FM090200 31016G23KT P6SM SKC
FM091500 33025G35KT P6SM BKN035



MET'MAP, your aeronautical weather chart ! - Copyright ORBIFLY December 2007 - Disclaimer

ORBIFLY MET'MAP TEAM :

Programming & Development : Alexandra Zaïnal
Concept & original design : Baudouin d'Aumeries
Assistance for programming : Marc-Olivier Méhu
Technical & hardware support : Manuel Goepfert

Contact : metmap@orbifly.com




SOURCES & CREDITS :

   NOAA       Earth
Advisory